Huvudsida
METAR-TAF:

METAR-TAF

Flygplatser :

Rio Branco flygplats

Rio Branco, Acre, Brasilien

latitud: 10-00S, longitud: 067-48W, höjd: 142 m

Aktuellt väderrapport

Denna rapport gjordes för 53 minuter sedan, klockan 01:00 UTC
Vind 1 kt från väst/nordväst
Temperatur 28°C
Fuktighet 89%
Tryck 1008 hPa
Sikt 10 km eller mer
Inga moln under 1 500 m eller inga cumulonimbus

METAR: SBRB 250100Z 30001KT CAVOK 28/26 Q1008

Tid: 20:53 (01:53 UTC)

Väderprognos

Denna rapport gjordes för 4 timmar och 8 minuter sedan, klockan 21:45 UTC
Prognos gäller från 25 kl. 00 UTC till 25 kl. 12 UTC
Vind 5 kt från väst/nordväst
Sikt 10 km eller mer
Få moln på en höjd av 1500 ft
Blir
från 25 kl. 09 UTC till 25 kl. 11 UTC
Vind 3 kt från väst/sydväst
Brutna moln på en höjd av 500 ft

TAF: SBRB 242145Z 2500/2512 30005KT 9999 FEW015 TN24/2509Z TX26/2512Z BECMG 2509/2511 24003KT BKN005 RMK PFV

Aktuella väderrapporter och prognoser från 4000 flygplatser (METAR- och TAF-rapporter).

De tillgängliga stationerna syns som gula och röda prickar på kartan.

För musen över prickarna för att se namnen på stationerna.

Klicka sedan för att få väderrapporter och prognoser.

För att ändra kartan: Klicka på de gröna knapparna med ett svart kors på för att zooma in; den gröna knappen med ett streck på för att zooma ut; eller på de gröna pilarna för angränsande kartor.


METAR-TAF: